createdAt,value
2023-03-06T00:00:54.201Z,94516.38
2023-03-06T00:03:22.287Z,94515.00
2023-03-06T00:05:49.223Z,94519.91
2023-03-06T00:08:16.074Z,94512.50
2023-03-06T00:10:42.890Z,94520.28
2023-03-06T00:13:13.628Z,94524.31
2023-03-06T00:15:41.460Z,94514.50
2023-03-06T00:18:08.360Z,94506.63
2023-03-06T00:20:35.346Z,94514.56
2023-03-06T00:23:02.874Z,94510.06
2023-03-06T00:25:29.715Z,94508.78
2023-03-06T00:27:56.594Z,94511.09
2023-03-06T00:30:25.258Z,94519.03
2023-03-06T00:32:53.230Z,94516.09
2023-03-06T00:35:20.412Z,94497.72
2023-03-06T00:37:47.634Z,94514.06
2023-03-06T00:40:17.870Z,94521.31
2023-03-06T00:42:45.277Z,94514.50
2023-03-06T00:45:12.730Z,94518.28
2023-03-06T00:47:39.992Z,94503.63
2023-03-06T00:50:08.185Z,94501.34
2023-03-06T00:52:34.857Z,94502.53
2023-03-06T00:55:01.728Z,94496.94
2023-03-06T00:57:28.420Z,94499.38
2023-03-06T00:59:55.162Z,94498.91
2023-03-06T01:02:22.258Z,94490.53
2023-03-06T01:04:49.026Z,94484.34
2023-03-06T01:07:15.783Z,94499.31
2023-03-06T01:09:42.813Z,94503.28
2023-03-06T01:12:09.911Z,94505.31
2023-03-06T01:14:36.824Z,94502.25
2023-03-06T01:17:03.653Z,94498.00
2023-03-06T01:19:30.676Z,94500.47
2023-03-06T01:21:57.559Z,94495.72
2023-03-06T01:24:25.881Z,94490.44
2023-03-06T01:26:56.383Z,94505.75
2023-03-06T01:29:23.179Z,94505.63
2023-03-06T01:31:50.089Z,94500.63
2023-03-06T01:34:16.980Z,94506.91
2023-03-06T01:36:43.777Z,94507.06
2023-03-06T01:39:10.742Z,94488.91
2023-03-06T01:41:37.550Z,94494.22
2023-03-06T01:44:04.418Z,94500.47
2023-03-06T01:46:42.327Z,94493.16
2023-03-06T01:49:15.524Z,94492.09
2023-03-06T01:51:53.704Z,94489.78
2023-03-06T01:54:25.514Z,94495.56
2023-03-06T01:56:56.801Z,94502.09
2023-03-06T01:59:26.903Z,94502.84
2023-03-06T02:01:54.876Z,94494.41
2023-03-06T02:04:21.956Z,94489.75
2023-03-06T02:06:48.724Z,94493.56
2023-03-06T02:09:16.524Z,94493.19
2023-03-06T02:11:44.376Z,94497.47
2023-03-06T02:14:14.587Z,94495.72
2023-03-06T02:16:41.902Z,94510.28
2023-03-06T02:19:22.143Z,94503.69
2023-03-06T02:21:49.952Z,94496.28
2023-03-06T02:24:30.187Z,94496.88
2023-03-06T02:26:59.214Z,94506.59
2023-03-06T02:29:29.563Z,94507.88
2023-03-06T02:32:00.542Z,94510.22
2023-03-06T02:34:28.024Z,94511.78
2023-03-06T02:37:05.152Z,94508.63
2023-03-06T02:39:34.535Z,94509.03
2023-03-06T02:42:01.255Z,94521.31
2023-03-06T02:44:32.974Z,94517.75
2023-03-06T02:46:59.801Z,94527.44
2023-03-06T02:49:26.683Z,94519.06
2023-03-06T02:51:53.544Z,94523.31
2023-03-06T02:54:20.302Z,94531.16
2023-03-06T02:56:47.246Z,94508.59
2023-03-06T02:59:14.041Z,94519.13
2023-03-06T03:01:41.107Z,94505.13
2023-03-06T03:04:08.669Z,94525.22
2023-03-06T03:06:36.434Z,94525.09
2023-03-06T03:09:03.795Z,94532.91
2023-03-06T03:11:30.713Z,94534.63
2023-03-06T03:13:57.691Z,94526.13
2023-03-06T03:16:27.213Z,94523.41
2023-03-06T03:18:57.845Z,94525.03
2023-03-06T03:21:26.183Z,94526.97
2023-03-06T03:23:54.604Z,94522.91
2023-03-06T03:26:22.444Z,94516.38
2023-03-06T03:28:57.262Z,94521.59
2023-03-06T03:31:24.184Z,94533.34
2023-03-06T03:33:51.038Z,94531.59
2023-03-06T03:36:19.208Z,94535.38
2023-03-06T03:38:47.431Z,94531.06
2023-03-06T03:41:14.623Z,94536.88
2023-03-06T03:43:42.970Z,94544.66
2023-03-06T03:46:10.618Z,94546.72
2023-03-06T03:48:38.432Z,94551.25
2023-03-06T03:51:11.639Z,94544.78
2023-03-06T03:53:43.225Z,94545.38
2023-03-06T03:56:13.263Z,94540.16
2023-03-06T03:58:48.888Z,94538.94
2023-03-06T04:01:16.159Z,94545.97
2023-03-06T04:03:43.688Z,94538.09
2023-03-06T04:06:11.692Z,94558.69
2023-03-06T04:08:39.459Z,94556.22
2023-03-06T04:11:06.456Z,94558.13
2023-03-06T04:13:33.303Z,94561.69
2023-03-06T04:16:01.416Z,94548.16
2023-03-06T04:18:30.229Z,94556.31
2023-03-06T04:21:01.130Z,94560.38
2023-03-06T04:23:28.312Z,94563.38
2023-03-06T04:25:55.465Z,94557.06
2023-03-06T04:28:22.808Z,94560.06
2023-03-06T04:30:50.373Z,94550.72
2023-03-06T04:33:18.203Z,94564.63
2023-03-06T04:35:45.102Z,94563.75
2023-03-06T04:38:18.324Z,94569.13
2023-03-06T04:40:45.919Z,94554.56
2023-03-06T04:43:12.760Z,94572.22
2023-03-06T04:45:39.620Z,94577.53
2023-03-06T04:48:06.658Z,94566.59
2023-03-06T04:50:33.426Z,94572.19
2023-03-06T04:53:01.981Z,94574.38
2023-03-06T04:55:29.006Z,94571.53
2023-03-06T04:57:57.254Z,94574.91
2023-03-06T05:00:30.488Z,94578.44
2023-03-06T05:02:59.519Z,94576.94
2023-03-06T05:05:27.159Z,94558.94
2023-03-06T05:07:54.088Z,94572.25
2023-03-06T05:10:21.371Z,94579.75
2023-03-06T05:12:48.250Z,94582.88
2023-03-06T05:15:14.960Z,94579.72
2023-03-06T05:17:41.694Z,94578.53
2023-03-06T05:20:09.752Z,94584.63
2023-03-06T05:22:37.566Z,94585.13
2023-03-06T05:25:05.010Z,94578.91
2023-03-06T05:27:32.063Z,94589.91
2023-03-06T05:29:58.842Z,94590.47
2023-03-06T05:32:25.508Z,94593.91
2023-03-06T05:34:52.312Z,94580.16
2023-03-06T05:37:18.972Z,94580.19
2023-03-06T05:39:46.167Z,94583.81
2023-03-06T05:42:12.789Z,94586.38
2023-03-06T05:44:39.746Z,94588.53
2023-03-06T05:47:06.351Z,94593.19
2023-03-06T05:49:36.158Z,94580.03
2023-03-06T05:52:06.134Z,94588.69
2023-03-06T05:54:33.511Z,94586.63
2023-03-06T05:57:00.167Z,94591.41
2023-03-06T05:59:28.597Z,94598.84
2023-03-06T06:01:55.647Z,94598.22
2023-03-06T06:04:23.129Z,94594.16
2023-03-06T06:06:57.067Z,94597.38
2023-03-06T06:09:24.154Z,94598.19
2023-03-06T06:11:54.770Z,94603.56
2023-03-06T06:14:21.799Z,94607.00
2023-03-06T06:16:48.584Z,94620.25
2023-03-06T06:19:18.736Z,94618.91
2023-03-06T06:21:47.143Z,94616.56
2023-03-06T06:24:14.290Z,94622.69
2023-03-06T06:26:41.119Z,94622.72
2023-03-06T06:29:07.949Z,94621.22
2023-03-06T06:31:36.751Z,94625.94
2023-03-06T06:34:06.676Z,94634.63
2023-03-06T06:36:33.562Z,94622.06
2023-03-06T06:39:00.415Z,94622.09
2023-03-06T06:41:42.752Z,94622.41
2023-03-06T06:44:16.122Z,94624.91
2023-03-06T06:49:32.713Z,94625.75
2023-03-06T06:51:59.638Z,94638.22
2023-03-06T06:54:26.489Z,94637.72
2023-03-06T06:56:53.486Z,94640.22
2023-03-06T06:59:20.556Z,94637.97
2023-03-06T07:01:47.258Z,94637.28
2023-03-06T07:04:14.443Z,94638.41
2023-03-06T07:06:41.813Z,94631.91
2023-03-06T07:09:08.474Z,94631.09
2023-03-06T07:11:35.135Z,94632.50
2023-03-06T07:14:02.062Z,94639.91
2023-03-06T07:16:28.686Z,94621.44
2023-03-06T07:18:55.397Z,94624.38
2023-03-06T07:21:22.153Z,94622.84
2023-03-06T07:23:48.907Z,94629.16
2023-03-06T07:26:15.583Z,94630.16
2023-03-06T07:28:51.916Z,94632.84
2023-03-06T07:31:23.755Z,94625.78
2023-03-06T07:33:51.017Z,94629.22
2023-03-06T07:36:17.965Z,94627.13
2023-03-06T07:38:45.657Z,94632.91
2023-03-06T07:41:13.733Z,94632.38
2023-03-06T07:43:41.393Z,94636.06
2023-03-06T07:46:08.224Z,94632.91
2023-03-06T07:48:35.565Z,94639.19
2023-03-06T07:51:03.383Z,94640.22
2023-03-06T07:53:30.308Z,94638.16
2023-03-06T07:55:57.258Z,94640.78
2023-03-06T07:58:24.720Z,94635.00
2023-03-06T08:00:51.681Z,94636.81
2023-03-06T08:03:18.932Z,94633.94
2023-03-06T08:05:45.702Z,94639.19
2023-03-06T08:08:12.790Z,94642.31
2023-03-06T08:10:39.392Z,94638.63
2023-03-06T08:13:06.053Z,94639.31
2023-03-06T08:15:32.791Z,94628.50
2023-03-06T08:17:59.451Z,94633.28
2023-03-06T08:20:26.362Z,94629.50
2023-03-06T08:22:52.926Z,94630.41
2023-03-06T08:25:19.744Z,94636.19
2023-03-06T08:27:47.433Z,94632.91
2023-03-06T08:30:14.694Z,94625.16
2023-03-06T08:32:41.476Z,94631.34
2023-03-06T08:35:08.449Z,94626.31
2023-03-06T08:37:35.177Z,94624.97
2023-03-06T08:40:04.872Z,94618.03
2023-03-06T08:42:31.938Z,94616.78
2023-03-06T08:44:58.610Z,94624.63
2023-03-06T08:47:25.287Z,94614.69
2023-03-06T08:49:52.055Z,94615.38
2023-03-06T08:52:19.920Z,94622.47
2023-03-06T08:54:47.268Z,94614.47
2023-03-06T08:57:13.895Z,94611.44
2023-03-06T08:59:42.111Z,94614.84
2023-03-06T09:02:12.444Z,94609.13
2023-03-06T09:04:39.041Z,94609.09
2023-03-06T09:07:05.851Z,94608.00
2023-03-06T09:09:32.513Z,94605.88
2023-03-06T09:11:59.121Z,94601.84
2023-03-06T09:14:25.779Z,94601.41
2023-03-06T09:16:52.558Z,94603.91
2023-03-06T09:19:19.213Z,94607.44
2023-03-06T09:21:45.879Z,94604.66
2023-03-06T09:24:12.574Z,94606.06
2023-03-06T09:26:45.936Z,94599.97
2023-03-06T09:29:16.321Z,94604.13
2023-03-06T09:31:43.241Z,94599.81
2023-03-06T09:34:09.985Z,94593.22
2023-03-06T09:36:53.307Z,94592.59
2023-03-06T09:39:21.891Z,94596.56
2023-03-06T09:41:50.193Z,94605.94
2023-03-06T09:44:19.095Z,94594.19
2023-03-06T09:46:45.732Z,94593.84
2023-03-06T09:49:18.482Z,94593.81
2023-03-06T09:51:51.796Z,94586.34
2023-03-06T09:54:23.434Z,94585.84
2023-03-06T09:56:50.627Z,94580.56
2023-03-06T09:59:21.711Z,94572.03
2023-03-06T10:01:59.067Z,94568.34
2023-03-06T10:04:35.298Z,94563.94
2023-03-06T10:07:34.729Z,94558.56
2023-03-06T10:10:04.068Z,94561.34
2023-03-06T10:12:33.806Z,94557.53
2023-03-06T10:15:26.634Z,94552.56
2023-03-06T10:17:53.677Z,94540.38
2023-03-06T10:20:34.642Z,94542.78
2023-03-06T10:23:27.792Z,94541.63
2023-03-06T10:26:02.073Z,94538.72
2023-03-06T10:28:37.123Z,94539.06
2023-03-06T10:31:10.314Z,94535.97
2023-03-06T10:33:40.131Z,94534.72
2023-03-06T10:36:06.824Z,94526.94
2023-03-06T10:38:38.310Z,94525.84
2023-03-06T10:41:10.722Z,94517.59
2023-03-06T10:43:56.004Z,94516.47
2023-03-06T10:46:30.147Z,94517.88
2023-03-06T10:48:58.109Z,94518.66
2023-03-06T10:51:26.153Z,94512.13
2023-03-06T10:53:52.896Z,94508.19
2023-03-06T10:56:27.225Z,94501.97
2023-03-06T10:59:07.914Z,94503.78
2023-03-06T11:01:35.175Z,94498.31
2023-03-06T11:04:23.312Z,94500.31
2023-03-06T11:07:13.349Z,94488.34
2023-03-06T11:09:41.077Z,94481.78
2023-03-06T11:12:33.892Z,94478.72
2023-03-06T11:15:06.712Z,94473.56
2023-03-06T11:17:34.731Z,94478.97
2023-03-06T11:20:22.170Z,94476.34
2023-03-06T11:22:51.089Z,94468.38
2023-03-06T11:25:18.834Z,94474.38
2023-03-06T11:27:47.098Z,94465.47
2023-03-06T11:30:19.198Z,94450.84
2023-03-06T11:32:50.331Z,94455.19
2023-03-06T11:35:24.067Z,94448.78
2023-03-06T11:37:53.164Z,94443.72
2023-03-06T11:40:36.302Z,94440.69
2023-03-06T11:43:10.746Z,94440.81
2023-03-06T11:45:51.106Z,94419.84
2023-03-06T11:48:30.763Z,94414.47
2023-03-06T11:50:59.827Z,94414.28
2023-03-06T11:53:30.727Z,94415.25
2023-03-06T11:55:57.359Z,94414.63
2023-03-06T11:58:35.868Z,94410.41
2023-03-06T12:01:17.520Z,94409.59
2023-03-06T12:04:03.137Z,94403.16
2023-03-06T12:06:36.783Z,94399.44
2023-03-06T12:09:12.750Z,94389.44
2023-03-06T12:11:39.506Z,94383.50
2023-03-06T12:14:18.542Z,94381.56
2023-03-06T12:17:07.003Z,94382.38
2023-03-06T12:19:52.116Z,94381.59
2023-03-06T12:22:24.759Z,94376.34
2023-03-06T12:25:03.972Z,94373.31
2023-03-06T12:27:42.877Z,94382.72
2023-03-06T12:30:09.582Z,94376.91
2023-03-06T12:32:43.528Z,94368.66
2023-03-06T12:35:13.126Z,94375.59
2023-03-06T12:37:55.606Z,94367.56
2023-03-06T12:40:40.777Z,94356.75
2023-03-06T12:43:35.606Z,94355.03
2023-03-06T12:46:20.702Z,94357.81
2023-03-06T12:48:53.589Z,94358.88
2023-03-06T12:51:20.942Z,94353.66
2023-03-06T12:53:48.127Z,94353.75
2023-03-06T12:56:17.056Z,94354.06
2023-03-06T12:58:48.242Z,94355.91
2023-03-06T13:01:20.063Z,94356.28
2023-03-06T13:04:05.536Z,94348.09
2023-03-06T13:06:49.724Z,94343.91
2023-03-06T13:09:26.572Z,94338.91
2023-03-06T13:12:08.743Z,94331.13
2023-03-06T13:14:42.337Z,94334.72
2023-03-06T13:17:24.228Z,94330.00
2023-03-06T13:20:24.100Z,94320.50
2023-03-06T13:22:50.761Z,94321.38
2023-03-06T13:25:17.307Z,94326.03
2023-03-06T13:27:53.105Z,94323.13
2023-03-06T13:30:21.073Z,94316.06
2023-03-06T13:32:49.034Z,94315.53
2023-03-06T13:35:32.214Z,94311.53
2023-03-06T13:37:59.636Z,94311.94
2023-03-06T13:40:35.618Z,94300.09
2023-03-06T13:43:07.220Z,94300.44
2023-03-06T13:45:33.797Z,94295.84
2023-03-06T13:48:41.278Z,94302.13
2023-03-06T13:50:48.833Z,94308.66
2023-03-06T13:53:34.274Z,94299.41
2023-03-06T13:56:19.500Z,94320.53
2023-03-06T13:58:58.230Z,94320.66
2023-03-06T14:01:32.850Z,94315.53
2023-03-06T14:04:02.695Z,94312.56
2023-03-06T14:06:35.026Z,94306.84
2023-03-06T14:09:03.863Z,94315.34
2023-03-06T14:11:31.562Z,94303.59
2023-03-06T14:13:58.938Z,94307.78
2023-03-06T14:16:29.161Z,94308.31
2023-03-06T14:19:00.737Z,94319.97
2023-03-06T14:21:34.150Z,94304.88
2023-03-06T14:24:02.899Z,94299.00
2023-03-06T14:26:33.946Z,94310.50
2023-03-06T14:29:01.438Z,94299.81
2023-03-06T14:31:32.689Z,94310.56
2023-03-06T14:34:05.093Z,94311.28
2023-03-06T14:36:34.710Z,94312.69
2023-03-06T14:39:04.187Z,94317.28
2023-03-06T14:41:32.848Z,94317.47
2023-03-06T14:44:16.745Z,94312.97
2023-03-06T14:46:47.632Z,94316.13
2023-03-06T14:49:15.384Z,94322.94
2023-03-06T14:51:43.825Z,94309.47
2023-03-06T14:54:15.021Z,94319.03
2023-03-06T14:56:43.063Z,94322.31
2023-03-06T14:59:12.646Z,94331.22
2023-03-06T15:01:44.103Z,94327.69
2023-03-06T15:04:17.273Z,94319.78
2023-03-06T15:06:44.989Z,94329.13
2023-03-06T15:09:14.654Z,94326.41
2023-03-06T15:12:13.718Z,94323.06
2023-03-06T15:14:41.676Z,94322.53
2023-03-06T15:17:20.829Z,94322.72
2023-03-06T15:19:48.857Z,94323.97
2023-03-06T15:22:21.429Z,94325.94
2023-03-06T15:24:48.217Z,94320.31
2023-03-06T15:27:17.756Z,94324.47
2023-03-06T15:29:44.453Z,94320.44
2023-03-06T15:32:29.993Z,94322.53
2023-03-06T15:35:15.714Z,94323.31
2023-03-06T15:37:42.382Z,94316.53
2023-03-06T15:40:16.828Z,94322.31
2023-03-06T15:42:43.439Z,94325.34
2023-03-06T15:45:18.908Z,94322.03
2023-03-06T15:47:46.222Z,94324.47
2023-03-06T15:50:16.896Z,94326.47
2023-03-06T15:52:43.930Z,94325.13
2023-03-06T15:55:15.819Z,94333.69
2023-03-06T15:57:54.190Z,94327.19
2023-03-06T16:00:27.869Z,94337.00
2023-03-06T16:02:55.965Z,94344.09
2023-03-06T16:05:22.662Z,94339.38
2023-03-06T16:07:49.373Z,94346.09
2023-03-06T16:10:17.317Z,94343.47
2023-03-06T16:12:47.434Z,94344.28
2023-03-06T16:15:21.458Z,94347.47
2023-03-06T16:17:49.520Z,94346.75
2023-03-06T16:20:21.860Z,94347.00
2023-03-06T16:22:49.956Z,94355.72
2023-03-06T16:25:17.607Z,94345.72
2023-03-06T16:27:47.918Z,94351.09
2023-03-06T16:30:19.245Z,94358.69
2023-03-06T16:32:46.624Z,94356.41
2023-03-06T16:35:13.931Z,94356.75
2023-03-06T16:37:41.100Z,94362.53
2023-03-06T16:40:27.431Z,94362.19
2023-03-06T16:42:55.212Z,94355.09
2023-03-06T16:45:22.629Z,94352.22
2023-03-06T16:47:49.714Z,94355.34
2023-03-06T16:50:26.858Z,94349.66
2023-03-06T16:52:54.728Z,94359.69
2023-03-06T16:55:21.681Z,94355.31
2023-03-06T16:57:48.520Z,94361.03
2023-03-06T17:00:16.397Z,94363.25
2023-03-06T17:02:43.173Z,94360.75
2023-03-06T17:05:11.093Z,94353.91
2023-03-06T17:07:38.126Z,94355.41
2023-03-06T17:10:09.142Z,94359.69
2023-03-06T17:12:36.047Z,94351.25
2023-03-06T17:15:03.485Z,94359.88
2023-03-06T17:17:30.180Z,94357.97
2023-03-06T17:19:56.886Z,94365.56
2023-03-06T17:22:23.543Z,94366.44
2023-03-06T17:24:52.141Z,94369.38
2023-03-06T17:27:19.776Z,94368.44
2023-03-06T17:29:46.531Z,94357.56
2023-03-06T17:32:13.580Z,94352.47
2023-03-06T17:34:40.681Z,94360.50
2023-03-06T17:37:07.434Z,94354.25
2023-03-06T17:39:35.573Z,94357.38
2023-03-06T17:42:03.335Z,94350.25
2023-03-06T17:44:30.395Z,94350.25
2023-03-06T17:46:57.020Z,94354.16
2023-03-06T17:49:27.528Z,94364.31
2023-03-06T17:51:56.501Z,94354.31
2023-03-06T17:54:26.288Z,94353.53
2023-03-06T17:56:53.636Z,94364.50
2023-03-06T17:59:20.397Z,94355.47
2023-03-06T18:01:47.320Z,94352.56
2023-03-06T18:04:14.173Z,94362.69
2023-03-06T18:06:42.145Z,94362.78
2023-03-06T18:09:10.268Z,94367.38
2023-03-06T18:11:37.375Z,94362.97
2023-03-06T18:14:05.528Z,94364.72
2023-03-06T18:16:32.499Z,94364.47
2023-03-06T18:18:59.258Z,94374.41
2023-03-06T18:21:26.435Z,94376.47
2023-03-06T18:23:53.121Z,94370.41
2023-03-06T18:26:27.362Z,94380.13
2023-03-06T18:28:55.460Z,94376.66
2023-03-06T18:31:24.506Z,94373.66
2023-03-06T18:33:55.886Z,94386.72
2023-03-06T18:36:24.102Z,94384.28
2023-03-06T18:38:51.048Z,94386.84
2023-03-06T18:41:18.416Z,94375.13
2023-03-06T18:43:51.076Z,94376.13
2023-03-06T18:46:17.889Z,94373.00
2023-03-06T18:48:44.837Z,94375.97
2023-03-06T18:51:12.062Z,94374.81
2023-03-06T18:53:40.104Z,94381.59
2023-03-06T18:56:07.528Z,94378.66
2023-03-06T18:58:35.453Z,94381.50
2023-03-06T19:01:07.518Z,94372.91
2023-03-06T19:03:35.570Z,94375.84
2023-03-06T19:06:06.831Z,94375.59
2023-03-06T19:08:33.794Z,94370.69
2023-03-06T19:11:02.039Z,94382.53
2023-03-06T19:13:28.816Z,94370.91
2023-03-06T19:15:57.105Z,94375.41
2023-03-06T19:18:24.546Z,94376.19
2023-03-06T19:20:51.248Z,94384.56
2023-03-06T19:23:18.033Z,94376.41
2023-03-06T19:25:54.657Z,94374.63
2023-03-06T19:28:21.334Z,94367.59
2023-03-06T19:30:48.038Z,94369.53
2023-03-06T19:33:15.577Z,94364.06
2023-03-06T19:35:42.406Z,94362.31
2023-03-06T19:38:10.115Z,94360.78
2023-03-06T19:40:37.177Z,94357.34
2023-03-06T19:43:03.904Z,94359.53
2023-03-06T19:45:30.535Z,94366.59
2023-03-06T19:48:00.898Z,94364.09
2023-03-06T19:50:30.528Z,94356.78
2023-03-06T19:52:57.382Z,94355.53
2023-03-06T19:55:26.461Z,94357.63
2023-03-06T19:57:53.842Z,94354.97
2023-03-06T20:00:20.679Z,94358.38
2023-03-06T20:02:49.645Z,94356.22
2023-03-06T20:05:16.694Z,94355.03
2023-03-06T20:07:43.429Z,94357.09
2023-03-06T20:10:10.730Z,94350.38
2023-03-06T20:12:37.466Z,94359.34
2023-03-06T20:15:04.432Z,94362.09
2023-03-06T20:17:32.687Z,94355.88
2023-03-06T20:19:59.645Z,94356.03
2023-03-06T20:22:26.333Z,94360.94
2023-03-06T20:24:53.018Z,94356.94
2023-03-06T20:27:19.685Z,94359.47
2023-03-06T20:29:46.954Z,94365.84
2023-03-06T20:32:13.803Z,94362.53
2023-03-06T20:34:40.797Z,94364.28
2023-03-06T20:37:08.027Z,94366.41
2023-03-06T20:39:34.760Z,94360.88
2023-03-06T20:42:01.944Z,94361.06
2023-03-06T20:44:28.859Z,94372.88
2023-03-06T20:46:55.746Z,94373.06
2023-03-06T20:49:22.484Z,94374.41
2023-03-06T20:51:49.995Z,94381.84
2023-03-06T20:54:18.192Z,94383.38
2023-03-06T20:56:47.573Z,94382.38
2023-03-06T20:59:14.838Z,94385.25
2023-03-06T21:01:42.914Z,94375.31
2023-03-06T21:04:10.628Z,94365.84
2023-03-06T21:06:37.659Z,94375.13
2023-03-06T21:09:05.353Z,94368.69
2023-03-06T21:11:33.485Z,94369.19
2023-03-06T21:14:00.993Z,94366.41
2023-03-06T21:16:29.008Z,94363.63
2023-03-06T21:18:55.865Z,94364.91
2023-03-06T21:21:24.216Z,94356.84
2023-03-06T21:23:51.196Z,94360.88
2023-03-06T21:26:19.202Z,94353.38
2023-03-06T21:28:46.275Z,94355.78
2023-03-06T21:31:13.985Z,94359.00
2023-03-06T21:33:41.056Z,94356.50
2023-03-06T21:36:08.580Z,94356.94
2023-03-06T21:38:35.548Z,94352.56
2023-03-06T21:41:09.444Z,94345.75
2023-03-06T21:43:36.151Z,94348.59
2023-03-06T21:46:04.024Z,94345.78
2023-03-06T21:48:30.735Z,94354.78
2023-03-06T21:51:11.484Z,94364.94
2023-03-06T21:53:41.579Z,94350.84
2023-03-06T21:56:08.483Z,94356.78
2023-03-06T21:58:35.206Z,94348.91
2023-03-06T22:01:02.050Z,94352.06
2023-03-06T22:03:29.132Z,94343.13
2023-03-06T22:05:56.640Z,94339.53
2023-03-06T22:08:25.171Z,94341.22
2023-03-06T22:10:51.827Z,94355.09
2023-03-06T22:13:19.217Z,94348.97
2023-03-06T22:15:49.913Z,94346.41
2023-03-06T22:18:16.677Z,94340.31
2023-03-06T22:20:43.345Z,94356.00
2023-03-06T22:23:10.273Z,94336.44
2023-03-06T22:25:36.855Z,94351.41
2023-03-06T22:28:03.693Z,94354.41
2023-03-06T22:30:30.362Z,94353.06
2023-03-06T22:32:57.106Z,94350.00
2023-03-06T22:35:23.844Z,94335.06
2023-03-06T22:37:50.612Z,94332.06
2023-03-06T22:40:17.361Z,94336.22
2023-03-06T22:42:44.041Z,94350.28
2023-03-06T22:45:11.880Z,94353.00
2023-03-06T22:47:38.461Z,94350.63
2023-03-06T22:50:05.809Z,94341.03
2023-03-06T22:52:32.773Z,94341.75
2023-03-06T22:54:59.465Z,94353.00
2023-03-06T22:57:25.978Z,94338.44
2023-03-06T22:59:52.582Z,94339.88
2023-03-06T23:02:19.196Z,94340.66
2023-03-06T23:04:52.066Z,94350.59
2023-03-06T23:07:19.654Z,94347.78
2023-03-06T23:09:47.388Z,94355.84
2023-03-06T23:12:32.701Z,94342.97
2023-03-06T23:15:17.885Z,94349.66
2023-03-06T23:18:04.239Z,94343.63
2023-03-06T23:20:50.208Z,94347.72
2023-03-06T23:23:35.768Z,94347.38
2023-03-06T23:26:04.006Z,94348.16
2023-03-06T23:28:30.735Z,94352.94
2023-03-06T23:30:57.780Z,94346.50
2023-03-06T23:33:24.567Z,94347.94
2023-03-06T23:35:51.451Z,94338.91
2023-03-06T23:38:18.263Z,94338.63
2023-03-06T23:40:45.112Z,94335.09
2023-03-06T23:43:11.698Z,94328.44
2023-03-06T23:45:38.365Z,94340.25
2023-03-06T23:48:06.068Z,94332.19
2023-03-06T23:50:32.689Z,94329.25
2023-03-06T23:52:59.361Z,94333.53
2023-03-06T23:55:25.965Z,94319.78
2023-03-06T23:57:52.679Z,94316.88
